createdAt,value
2019-05-18T00:02:20.090Z,98845.28
2019-05-18T00:04:50.448Z,98849.80
2019-05-18T00:07:20.918Z,98862.41
2019-05-18T00:09:51.535Z,98848.08
2019-05-18T00:12:22.044Z,98849.97
2019-05-18T00:14:52.492Z,98850.45
2019-05-18T00:17:25.590Z,98845.00
2019-05-18T00:23:40.402Z,98843.16
2019-05-18T00:26:10.774Z,98841.83
2019-05-18T00:29:00.550Z,98841.38
2019-05-18T00:31:30.919Z,98839.16
2019-05-18T00:34:20.767Z,98837.56
2019-05-18T00:37:10.595Z,98833.39
2019-05-18T00:39:41.019Z,98833.41
2019-05-18T00:42:11.451Z,98831.31
2019-05-18T00:44:41.819Z,98826.27
2019-05-18T00:47:12.221Z,98829.38
2019-05-18T00:49:42.584Z,98828.54
2019-05-18T00:52:12.951Z,98827.80
2019-05-18T00:55:02.734Z,98826.16
2019-05-18T00:57:33.087Z,98821.20
2019-05-18T01:03:08.229Z,98827.45
2019-05-18T01:05:38.603Z,98827.13
2019-05-18T01:08:28.383Z,98824.28
2019-05-18T01:11:18.187Z,98829.87
2019-05-18T01:14:08.021Z,98825.38
2019-05-18T01:16:38.416Z,98820.94
2019-05-18T01:19:08.841Z,98822.16
2019-05-18T01:21:58.617Z,98818.22
2019-05-18T01:24:29.021Z,98809.88
2019-05-18T01:27:18.772Z,98805.98
2019-05-18T01:33:10.676Z,98801.19
2019-05-18T01:36:00.434Z,98796.09
2019-05-18T01:38:30.931Z,98799.31
2019-05-18T01:41:01.366Z,98803.19
2019-05-18T01:43:51.126Z,98803.03
2019-05-18T01:46:40.908Z,98796.34
2019-05-18T01:49:11.284Z,98797.23
2019-05-18T01:52:01.064Z,98797.37
2019-05-18T01:54:31.467Z,98801.69
2019-05-18T01:57:01.941Z,98797.17
2019-05-18T01:59:32.317Z,98796.56
2019-05-18T02:02:22.070Z,98800.03
2019-05-18T02:04:52.476Z,98799.84
2019-05-18T02:07:42.244Z,98797.74
2019-05-18T02:10:32.032Z,98796.41
2019-05-18T02:13:21.793Z,98792.20
2019-05-18T02:15:52.173Z,98788.20
2019-05-18T02:18:29.076Z,98790.43
2019-05-18T02:21:05.451Z,98788.56
2019-05-18T02:23:37.569Z,98779.25
2019-05-18T02:29:09.792Z,98781.45
2019-05-18T02:31:40.184Z,98784.25
2019-05-18T02:34:29.939Z,98775.50
2019-05-18T02:37:19.738Z,98783.03
2019-05-18T02:42:47.560Z,98773.45
2019-05-18T02:45:17.978Z,98777.32
2019-05-18T02:47:48.357Z,98771.79
2019-05-18T02:50:18.802Z,98775.25
2019-05-18T02:53:08.607Z,98776.84
2019-05-18T02:55:38.990Z,98783.80
2019-05-18T02:58:28.817Z,98782.91
2019-05-18T03:01:18.605Z,98788.02
2019-05-18T03:03:49.018Z,98785.77
2019-05-18T03:06:38.768Z,98784.78
2019-05-18T03:09:09.643Z,98792.03
2019-05-18T03:11:40.046Z,98784.91
2019-05-18T03:14:10.461Z,98781.25
2019-05-18T03:17:00.235Z,98780.84
2019-05-18T03:19:50.036Z,98785.20
2019-05-18T03:22:39.810Z,98787.34
2019-05-18T03:25:29.578Z,98788.61
2019-05-18T03:27:59.935Z,98791.83
2019-05-18T03:30:49.749Z,98791.13
2019-05-18T03:33:20.143Z,98789.43
2019-05-18T03:36:09.934Z,98794.06
2019-05-18T03:38:59.667Z,98794.42
2019-05-18T03:41:49.468Z,98796.17
2019-05-18T03:44:19.863Z,98794.97
2019-05-18T03:47:09.661Z,98790.59
2019-05-18T03:49:40.185Z,98794.06
2019-05-18T03:52:30.356Z,98789.38
2019-05-18T03:55:00.792Z,98792.34
2019-05-18T03:57:31.177Z,98796.92
2019-05-18T04:00:01.562Z,98792.14
2019-05-18T04:02:51.360Z,98789.05
2019-05-18T04:05:41.175Z,98793.55
2019-05-18T04:08:30.979Z,98797.19
2019-05-18T04:11:01.378Z,98797.17
2019-05-18T04:13:31.759Z,98807.62
2019-05-18T04:16:21.585Z,98803.19
2019-05-18T04:18:51.983Z,98811.75
2019-05-18T04:21:22.338Z,98813.68
2019-05-18T04:23:52.718Z,98808.13
2019-05-18T04:26:23.129Z,98805.63
2019-05-18T04:28:53.499Z,98804.64
2019-05-18T04:31:43.242Z,98802.80
2019-05-18T04:34:33.036Z,98803.90
2019-05-18T04:37:03.396Z,98801.98
2019-05-18T04:39:33.773Z,98800.91
2019-05-18T04:42:04.298Z,98797.77
2019-05-18T04:44:34.718Z,98802.38
2019-05-18T04:47:05.067Z,98796.19
2019-05-18T04:50:05.313Z,98794.22
2019-05-18T04:52:33.209Z,98798.17
2019-05-18T04:55:03.634Z,98795.83
2019-05-18T04:57:53.386Z,98794.30
2019-05-18T05:00:43.205Z,98795.50
2019-05-18T05:03:32.956Z,98788.25
2019-05-18T05:06:03.428Z,98794.59
2019-05-18T05:08:53.200Z,98794.35
2019-05-18T05:11:23.592Z,98794.75
2019-05-18T05:14:13.361Z,98803.10
2019-05-18T05:16:43.765Z,98787.83
2019-05-18T05:19:33.558Z,98790.87
2019-05-18T05:22:03.940Z,98789.83
2019-05-18T05:24:34.367Z,98784.30
2019-05-18T05:27:24.191Z,98781.45
2019-05-18T05:29:54.613Z,98786.20
2019-05-18T05:32:25.089Z,98784.73
2019-05-18T05:35:14.869Z,98790.91
2019-05-18T05:37:45.239Z,98788.48
2019-05-18T05:40:15.621Z,98793.27
2019-05-18T05:45:55.738Z,98802.45
2019-05-18T05:48:26.137Z,98797.95
2019-05-18T05:51:15.897Z,98796.19
2019-05-18T05:54:05.675Z,98798.91
2019-05-18T05:56:55.448Z,98790.16
2019-05-18T05:59:47.504Z,98795.01
2019-05-18T06:02:37.309Z,98802.38
2019-05-18T06:08:09.784Z,98799.27
2019-05-18T06:10:59.553Z,98814.23
2019-05-18T06:13:49.331Z,98808.87
2019-05-18T06:16:19.696Z,98819.75
2019-05-18T06:18:50.085Z,98813.09
2019-05-18T06:21:20.499Z,98816.48
2019-05-18T06:24:10.341Z,98812.16
2019-05-18T06:26:40.757Z,98811.61
2019-05-18T06:29:11.155Z,98817.23
2019-05-18T06:31:41.556Z,98811.84
2019-05-18T06:34:31.733Z,98819.95
2019-05-18T06:37:21.515Z,98820.84
2019-05-18T06:42:55.001Z,98819.63
2019-05-18T06:45:44.767Z,98825.22
2019-05-18T06:48:15.205Z,98821.30
2019-05-18T06:51:07.524Z,98823.59
2019-05-18T06:53:42.620Z,98823.62
2019-05-18T06:59:16.529Z,98816.95
2019-05-18T07:01:53.579Z,98818.59
2019-05-18T07:04:44.688Z,98829.23
2019-05-18T07:07:34.795Z,98822.40
2019-05-18T07:10:05.584Z,98817.78
2019-05-18T07:12:35.955Z,98822.24
2019-05-18T07:15:25.733Z,98819.83
2019-05-18T07:18:15.495Z,98811.66
2019-05-18T07:21:05.270Z,98810.28
2019-05-18T07:23:55.067Z,98823.89
2019-05-18T07:26:25.454Z,98816.41
2019-05-18T07:29:15.224Z,98820.94
2019-05-18T07:32:05.069Z,98826.89
2019-05-18T07:34:35.440Z,98823.77
2019-05-18T07:37:05.924Z,98818.14
2019-05-18T07:39:36.318Z,98824.04
2019-05-18T07:42:06.700Z,98823.03
2019-05-18T07:44:37.063Z,98817.24
2019-05-18T07:47:07.508Z,98825.55
2019-05-18T07:49:38.031Z,98823.33
2019-05-18T07:52:27.965Z,98827.45
2019-05-18T07:54:58.365Z,98825.05
2019-05-18T07:57:28.792Z,98818.84
2019-05-18T07:59:59.259Z,98825.60
2019-05-18T08:02:29.628Z,98813.66
2019-05-18T08:05:00.023Z,98822.03
2019-05-18T08:07:30.374Z,98835.12
2019-05-18T08:10:00.904Z,98818.98
2019-05-18T08:12:50.741Z,98821.40
2019-05-18T08:15:21.153Z,98827.47
2019-05-18T08:17:51.639Z,98828.77
2019-05-18T08:20:22.147Z,98825.44
2019-05-18T08:22:52.549Z,98825.59
2019-05-18T08:25:22.971Z,98831.30
2019-05-18T08:27:53.425Z,98829.15
2019-05-18T08:30:23.876Z,98834.04
2019-05-18T08:33:13.702Z,98831.78
2019-05-18T08:35:44.164Z,98833.60
2019-05-18T08:38:14.538Z,98832.77
2019-05-18T08:40:45.018Z,98838.34
2019-05-18T08:43:15.364Z,98834.87
2019-05-18T08:46:05.174Z,98833.92
2019-05-18T08:48:35.549Z,98839.52
2019-05-18T08:51:05.973Z,98844.19
2019-05-18T08:53:36.430Z,98839.08
2019-05-18T08:58:56.482Z,98846.00
2019-05-18T09:01:27.023Z,98849.30
2019-05-18T09:03:57.469Z,98845.41
2019-05-18T09:06:27.866Z,98855.69
2019-05-18T09:08:58.332Z,98855.28
2019-05-18T09:11:28.696Z,98851.73
2019-05-18T09:13:59.074Z,98848.59
2019-05-18T09:16:29.485Z,98848.46
2019-05-18T09:18:59.930Z,98846.98
2019-05-18T09:21:30.307Z,98860.62
2019-05-18T09:24:20.074Z,98849.87
2019-05-18T09:27:09.937Z,98853.89
2019-05-18T09:29:40.319Z,98858.20
2019-05-18T09:32:10.799Z,98854.77
2019-05-18T09:34:41.260Z,98859.97
2019-05-18T09:37:11.862Z,98855.55
2019-05-18T09:39:42.227Z,98862.17
2019-05-18T09:42:12.823Z,98855.34
2019-05-18T09:44:43.191Z,98858.36
2019-05-18T09:47:13.574Z,98860.95
2019-05-18T09:49:43.978Z,98862.44
2019-05-18T09:52:14.563Z,98851.58
2019-05-18T09:54:44.970Z,98851.33
2019-05-18T09:57:15.496Z,98850.63
2019-05-18T09:59:45.868Z,98838.38
2019-05-18T10:02:16.327Z,98838.96
2019-05-18T10:04:46.705Z,98842.08
2019-05-18T10:07:17.200Z,98838.86
2019-05-18T10:09:47.601Z,98842.91
2019-05-18T10:12:18.053Z,98833.56
2019-05-18T10:14:48.573Z,98831.08
2019-05-18T10:17:19.017Z,98823.14
2019-05-18T10:19:49.533Z,98827.01
2019-05-18T10:22:19.970Z,98831.28
2019-05-18T10:24:50.480Z,98829.82
2019-05-18T10:27:20.934Z,98825.03
2019-05-18T10:29:51.451Z,98822.08
2019-05-18T10:32:21.880Z,98814.20
2019-05-18T10:34:52.305Z,98817.13
2019-05-18T10:37:22.694Z,98815.50
2019-05-18T10:39:53.171Z,98800.83
2019-05-18T10:42:23.758Z,98801.08
2019-05-18T10:44:54.175Z,98797.84
2019-05-18T10:47:43.962Z,98800.94
2019-05-18T10:50:33.790Z,98798.03
2019-05-18T10:53:04.248Z,98798.23
2019-05-18T10:55:54.083Z,98800.61
2019-05-18T10:58:43.869Z,98797.03
2019-05-18T11:04:36.579Z,98795.39
2019-05-18T11:07:07.081Z,98792.31
2019-05-18T11:12:53.591Z,98786.38
2019-05-18T11:15:43.444Z,98788.88
2019-05-18T11:18:33.276Z,98784.74
2019-05-18T11:21:23.131Z,98785.23
2019-05-18T11:24:13.021Z,98784.67
2019-05-18T11:26:43.491Z,98784.30
2019-05-18T11:29:33.289Z,98782.37
2019-05-18T11:32:03.786Z,98782.08
2019-05-18T11:34:34.196Z,98782.06
2019-05-18T11:37:04.627Z,98782.41
2019-05-18T11:39:36.694Z,98779.50
2019-05-18T11:42:07.232Z,98779.95
2019-05-18T11:44:37.569Z,98770.99
2019-05-18T11:47:08.103Z,98777.17
2019-05-18T11:49:38.525Z,98776.20
2019-05-18T11:52:08.954Z,98767.38
2019-05-18T11:54:39.499Z,98766.84
2019-05-18T11:57:10.076Z,98770.32
2019-05-18T11:59:40.479Z,98760.83
2019-05-18T12:02:10.972Z,98762.91
2019-05-18T12:04:41.392Z,98761.81
2019-05-18T12:07:11.854Z,98763.47
2019-05-18T12:09:42.388Z,98763.66
2019-05-18T12:12:12.906Z,98768.33
2019-05-18T12:15:02.740Z,98756.83
2019-05-18T12:17:33.164Z,98766.81
2019-05-18T12:20:03.734Z,98758.13
2019-05-18T12:22:34.152Z,98761.46
2019-05-18T12:25:04.623Z,98763.68
2019-05-18T12:27:35.106Z,98750.68
2019-05-18T12:30:05.903Z,98753.50
2019-05-18T12:32:36.317Z,98756.23
2019-05-18T12:35:07.109Z,98746.38
2019-05-18T12:37:37.503Z,98743.40
2019-05-18T12:43:10.240Z,98742.65
2019-05-18T12:45:40.646Z,98733.38
2019-05-18T12:48:11.072Z,98728.14
2019-05-18T12:50:41.545Z,98735.60
2019-05-18T12:53:12.059Z,98728.63
2019-05-18T12:55:42.432Z,98719.84
2019-05-18T12:58:12.960Z,98718.17
2019-05-18T13:00:43.495Z,98714.19
2019-05-18T13:03:13.899Z,98709.85
2019-05-18T13:05:44.373Z,98706.45
2019-05-18T13:08:14.852Z,98705.14
2019-05-18T13:10:45.354Z,98707.67
2019-05-18T13:13:15.770Z,98692.52
2019-05-18T13:15:46.198Z,98701.66
2019-05-18T13:18:36.144Z,98695.16
2019-05-18T13:21:06.586Z,98691.83
2019-05-18T13:23:37.095Z,98700.22
2019-05-18T13:26:08.047Z,98702.02
2019-05-18T13:28:38.574Z,98692.19
2019-05-18T13:31:09.099Z,98681.73
2019-05-18T13:33:39.630Z,98679.61
2019-05-18T13:36:10.239Z,98685.62
2019-05-18T13:38:40.830Z,98689.19
2019-05-18T13:41:11.336Z,98676.55
2019-05-18T13:43:41.829Z,98683.36
2019-05-18T13:46:12.291Z,98674.39
2019-05-18T13:48:42.729Z,98679.36
2019-05-18T13:51:13.159Z,98661.03
2019-05-18T13:53:43.588Z,98664.81
2019-05-18T13:56:14.029Z,98669.95
2019-05-18T13:58:44.523Z,98663.82
2019-05-18T14:01:15.042Z,98662.05
2019-05-18T14:03:45.628Z,98667.77
2019-05-18T14:06:16.078Z,98658.37
2019-05-18T14:08:46.670Z,98659.37
2019-05-18T14:11:18.859Z,98663.33
2019-05-18T14:13:49.289Z,98669.86
2019-05-18T14:16:19.684Z,98658.23
2019-05-18T14:18:50.069Z,98652.14
2019-05-18T14:21:20.466Z,98659.28
2019-05-18T14:23:50.845Z,98656.98
2019-05-18T14:26:21.247Z,98658.94
2019-05-18T14:28:51.661Z,98651.78
2019-05-18T14:31:22.225Z,98655.66
2019-05-18T14:33:52.678Z,98648.03
2019-05-18T14:36:23.094Z,98641.67
2019-05-18T14:38:56.926Z,98637.73
2019-05-18T14:41:38.175Z,98635.49
2019-05-18T14:44:08.667Z,98640.38
2019-05-18T14:46:58.445Z,98638.34
2019-05-18T14:49:30.875Z,98641.42
2019-05-18T14:52:01.319Z,98643.69
2019-05-18T14:54:50.717Z,98633.28
2019-05-18T14:57:21.153Z,98627.50
2019-05-18T14:59:51.664Z,98627.00
2019-05-18T15:02:22.126Z,98624.79
2019-05-18T15:04:55.076Z,98617.70
2019-05-18T15:07:35.783Z,98622.40
2019-05-18T15:12:50.204Z,98612.51
2019-05-18T15:15:39.947Z,98611.28
2019-05-18T15:18:29.850Z,98610.77
2019-05-18T15:21:31.556Z,98612.48
2019-05-18T15:24:02.773Z,98617.09
2019-05-18T15:26:52.500Z,98617.09
2019-05-18T15:29:22.903Z,98613.40
2019-05-18T15:32:12.705Z,98603.80
2019-05-18T15:34:44.729Z,98594.69
2019-05-18T15:37:34.562Z,98591.37
2019-05-18T15:40:05.058Z,98588.75
2019-05-18T15:42:55.706Z,98587.44
2019-05-18T15:45:26.753Z,98588.75
2019-05-18T15:48:16.561Z,98588.81
2019-05-18T15:51:06.613Z,98587.69
2019-05-18T15:53:56.395Z,98578.25
2019-05-18T15:56:46.251Z,98574.41
2019-05-18T15:59:36.045Z,98582.97
2019-05-18T16:02:25.990Z,98577.11
2019-05-18T16:05:16.021Z,98583.07
2019-05-18T16:08:05.825Z,98574.34
2019-05-18T16:10:57.251Z,98570.37
2019-05-18T16:13:38.546Z,98587.09
2019-05-18T16:16:28.354Z,98579.75
2019-05-18T16:19:18.184Z,98578.47
2019-05-18T16:22:07.964Z,98582.45
2019-05-18T16:24:57.793Z,98578.06
2019-05-18T16:27:47.601Z,98580.11
2019-05-18T16:30:37.449Z,98585.53
2019-05-18T16:33:27.220Z,98585.63
2019-05-18T16:36:17.152Z,98590.37
2019-05-18T16:39:08.004Z,98589.20
2019-05-18T16:41:57.812Z,98589.64
2019-05-18T16:44:47.646Z,98585.86
2019-05-18T16:47:37.557Z,98589.29
2019-05-18T16:50:27.375Z,98594.95
2019-05-18T16:53:17.155Z,98589.20
2019-05-18T16:56:07.009Z,98584.16
2019-05-18T16:58:56.837Z,98585.85
2019-05-18T17:01:46.632Z,98581.30
2019-05-18T17:04:37.253Z,98577.12
2019-05-18T17:07:27.068Z,98583.39
2019-05-18T17:10:16.905Z,98578.53
2019-05-18T17:12:47.330Z,98570.89
2019-05-18T17:15:37.496Z,98567.02
2019-05-18T17:18:27.277Z,98568.42
2019-05-18T17:21:17.089Z,98569.20
2019-05-18T17:24:06.919Z,98563.66
2019-05-18T17:26:56.722Z,98563.70
2019-05-18T17:29:46.517Z,98569.34
2019-05-18T17:32:36.373Z,98571.70
2019-05-18T17:35:26.194Z,98576.28
2019-05-18T17:38:16.048Z,98562.21
2019-05-18T17:41:05.882Z,98571.02
2019-05-18T17:43:55.808Z,98568.72
2019-05-18T17:46:45.598Z,98557.47
2019-05-18T17:49:35.404Z,98561.23
2019-05-18T17:52:25.187Z,98562.73
2019-05-18T17:55:16.452Z,98567.62
2019-05-18T17:57:58.200Z,98557.73
2019-05-18T18:00:28.656Z,98560.26
2019-05-18T18:03:18.532Z,98564.73
2019-05-18T18:06:08.366Z,98564.65
2019-05-18T18:08:58.142Z,98568.30
2019-05-18T18:11:47.972Z,98573.35
2019-05-18T18:14:37.743Z,98575.50
2019-05-18T18:17:27.580Z,98579.67
2019-05-18T18:20:17.570Z,98582.39
2019-05-18T18:23:07.401Z,98578.32
2019-05-18T18:25:57.194Z,98576.51
2019-05-18T18:28:47.019Z,98580.23
2019-05-18T18:31:36.828Z,98587.33
2019-05-18T18:34:26.749Z,98587.12
2019-05-18T18:37:17.072Z,98589.84
2019-05-18T18:43:13.991Z,98601.28
2019-05-18T18:46:03.836Z,98605.18
2019-05-18T18:48:34.793Z,98603.66
2019-05-18T18:51:06.834Z,98605.19
2019-05-18T18:53:56.911Z,98595.89
2019-05-18T18:56:46.689Z,98604.84
2019-05-18T18:59:36.519Z,98607.38
2019-05-18T19:02:26.307Z,98607.14
2019-05-18T19:08:22.327Z,98615.53
2019-05-18T19:10:53.112Z,98624.98
2019-05-18T19:16:28.343Z,98624.08
2019-05-18T19:19:18.674Z,98622.37
2019-05-18T19:22:12.076Z,98629.02
2019-05-18T19:28:04.440Z,98628.03
2019-05-18T19:30:54.949Z,98630.34
2019-05-18T19:33:44.782Z,98627.98
2019-05-18T19:36:34.589Z,98632.41
2019-05-18T19:42:13.625Z,98629.11
2019-05-18T19:44:44.195Z,98630.26
2019-05-18T19:47:34.351Z,98629.42
2019-05-18T19:56:13.951Z,98630.70
2019-05-18T19:59:03.761Z,98632.06
2019-05-18T20:01:53.610Z,98635.13
2019-05-18T20:04:24.154Z,98629.45
2019-05-18T20:07:14.011Z,98623.16
2019-05-18T20:10:03.869Z,98626.41
2019-05-18T20:12:53.679Z,98630.25
2019-05-18T20:15:24.067Z,98627.82
2019-05-18T20:18:13.931Z,98619.39
2019-05-18T20:21:03.737Z,98613.49
2019-05-18T20:23:53.585Z,98606.11
2019-05-18T20:26:43.368Z,98599.86
2019-05-18T20:29:33.171Z,98610.05
2019-05-18T20:32:22.987Z,98608.23
2019-05-18T20:35:12.814Z,98609.13
2019-05-18T20:38:02.661Z,98602.05
2019-05-18T20:40:52.545Z,98603.47
2019-05-18T20:43:42.350Z,98598.99
2019-05-18T20:46:32.149Z,98595.13
2019-05-18T20:49:21.965Z,98590.52
2019-05-18T20:52:11.774Z,98592.66
2019-05-18T20:55:01.616Z,98593.02
2019-05-18T20:57:51.971Z,98594.72
2019-05-18T21:00:41.803Z,98594.15
2019-05-18T21:03:31.603Z,98599.43
2019-05-18T21:06:02.092Z,98594.50
2019-05-18T21:08:52.008Z,98594.98
2019-05-18T21:11:41.813Z,98594.33
2019-05-18T21:14:31.655Z,98589.53
2019-05-18T21:17:21.430Z,98589.13
2019-05-18T21:23:16.377Z,98578.27
2019-05-18T21:26:06.150Z,98579.87
2019-05-18T21:29:00.512Z,98575.91
2019-05-18T21:31:47.475Z,98579.19
2019-05-18T21:34:37.285Z,98573.03
2019-05-18T21:37:27.079Z,98569.75
2019-05-18T21:40:16.912Z,98573.50
2019-05-18T21:43:06.717Z,98561.85
2019-05-18T21:45:59.203Z,98567.73
2019-05-18T21:48:48.982Z,98565.28
2019-05-18T21:51:38.777Z,98554.61
2019-05-18T21:54:28.751Z,98554.03
2019-05-18T21:57:18.580Z,98555.44
2019-05-18T22:03:10.444Z,98540.84
2019-05-18T22:05:42.474Z,98545.40
2019-05-18T22:08:32.305Z,98549.82
2019-05-18T22:11:22.105Z,98545.60
2019-05-18T22:14:11.914Z,98543.52
2019-05-18T22:17:01.713Z,98540.20
2019-05-18T22:19:51.523Z,98531.73
2019-05-18T22:22:41.349Z,98532.62
2019-05-18T22:25:31.158Z,98530.45
2019-05-18T22:28:01.596Z,98528.89
2019-05-18T22:30:51.380Z,98523.52
2019-05-18T22:33:41.189Z,98519.47
2019-05-18T22:36:30.992Z,98515.14
2019-05-18T22:39:20.824Z,98514.33
2019-05-18T22:42:10.637Z,98513.11
2019-05-18T22:45:01.539Z,98503.46
2019-05-18T22:47:51.382Z,98506.08
2019-05-18T22:50:41.203Z,98502.31
2019-05-18T22:53:31.009Z,98504.23
2019-05-18T22:56:20.833Z,98501.80
2019-05-18T22:59:10.637Z,98501.13
2019-05-18T23:02:00.591Z,98506.26
2019-05-18T23:04:31.036Z,98512.11
2019-05-18T23:07:20.853Z,98507.86
2019-05-18T23:10:10.823Z,98502.31
2019-05-18T23:13:00.770Z,98497.55
2019-05-18T23:15:50.598Z,98498.33
2019-05-18T23:18:54.509Z,98491.67
2019-05-18T23:21:23.942Z,98491.16
2019-05-18T23:24:13.774Z,98493.16
2019-05-18T23:27:03.787Z,98484.91
2019-05-18T23:29:34.181Z,98483.92
2019-05-18T23:32:05.013Z,98485.33
2019-05-18T23:34:54.799Z,98488.33
2019-05-18T23:37:44.620Z,98488.92
2019-05-18T23:40:34.392Z,98481.16
2019-05-18T23:43:04.824Z,98481.78
2019-05-18T23:45:54.593Z,98482.59
2019-05-18T23:48:25.031Z,98483.11
2019-05-18T23:51:14.797Z,98479.09
2019-05-18T23:54:23.627Z,98477.33
2019-05-18T23:57:13.448Z,98479.24
